sensor_id;sensor_type;location;lat;lon;timestamp;P1;durP1;ratioP1;P2;durP2;ratioP2
23732;SDS011;12047;53.450;-2.286;2022-10-22T00:07:13;4.13;;;1.40;;
23732;SDS011;12047;53.450;-2.286;2022-10-22T00:19:13;3.03;;;1.10;;
23732;SDS011;12047;53.450;-2.286;2022-10-22T00:30:51;5.03;;;1.10;;
23732;SDS011;12047;53.450;-2.286;2022-10-22T00:41:44;5.53;;;1.10;;
23732;SDS011;12047;53.450;-2.286;2022-10-22T00:58:11;4.88;;;0.82;;
23732;SDS011;12047;53.450;-2.286;2022-10-22T01:03:53;5.88;;;1.00;;
23732;SDS011;12047;53.450;-2.286;2022-10-22T01:09:11;5.25;;;0.95;;
23732;SDS011;12047;53.450;-2.286;2022-10-22T01:14:21;6.25;;;1.08;;
23732;SDS011;12047;53.450;-2.286;2022-10-22T01:31:46;5.15;;;1.17;;
23732;SDS011;12047;53.450;-2.286;2022-10-22T01:36:54;7.50;;;1.42;;
23732;SDS011;12047;53.450;-2.286;2022-10-22T01:42:19;4.22;;;1.02;;
23732;SDS011;12047;53.450;-2.286;2022-10-22T02:11:20;5.60;;;1.10;;
23732;SDS011;12047;53.450;-2.286;2022-10-22T02:22:29;5.60;;;0.93;;
23732;SDS011;12047;53.450;-2.286;2022-10-22T02:46:01;8.90;;;1.05;;
23732;SDS011;12047;53.450;-2.286;2022-10-22T03:10:34;3.15;;;1.02;;
23732;SDS011;12047;53.450;-2.286;2022-10-22T03:15:35;8.98;;;1.20;;
23732;SDS011;12047;53.450;-2.286;2022-10-22T03:21:03;6.50;;;0.95;;
23732;SDS011;12047;53.450;-2.286;2022-10-22T03:26:34;7.38;;;1.35;;
23732;SDS011;12047;53.450;-2.286;2022-10-22T03:32:01;6.33;;;0.80;;
23732;SDS011;12047;53.450;-2.286;2022-10-22T03:37:04;5.63;;;0.85;;
23732;SDS011;12047;53.450;-2.286;2022-10-22T03:42:14;5.38;;;1.27;;
23732;SDS011;12047;53.450;-2.286;2022-10-22T03:48:06;6.35;;;1.02;;
23732;SDS011;12047;53.450;-2.286;2022-10-22T03:59:45;7.80;;;1.00;;
23732;SDS011;12047;53.450;-2.286;2022-10-22T04:04:46;6.20;;;1.20;;
23732;SDS011;12047;53.450;-2.286;2022-10-22T04:10:06;8.00;;;0.90;;
23732;SDS011;12047;53.450;-2.286;2022-10-22T04:15:12;6.32;;;1.30;;
23732;SDS011;12047;53.450;-2.286;2022-10-22T04:20:15;5.03;;;1.40;;
23732;SDS011;12047;53.450;-2.286;2022-10-22T04:25:16;5.88;;;1.33;;
23732;SDS011;12047;53.450;-2.286;2022-10-22T04:30:18;8.07;;;1.25;;
23732;SDS011;12047;53.450;-2.286;2022-10-22T04:40:39;6.68;;;1.15;;
23732;SDS011;12047;53.450;-2.286;2022-10-22T04:45:39;6.00;;;1.58;;
23732;SDS011;12047;53.450;-2.286;2022-10-22T04:50:40;5.45;;;1.17;;
23732;SDS011;12047;53.450;-2.286;2022-10-22T04:55:44;5.88;;;0.82;;
23732;SDS011;12047;53.450;-2.286;2022-10-22T05:00:47;8.93;;;1.40;;
23732;SDS011;12047;53.450;-2.286;2022-10-22T05:05:47;8.73;;;1.67;;
23732;SDS011;12047;53.450;-2.286;2022-10-22T05:10:48;11.80;;;1.80;;
23732;SDS011;12047;53.450;-2.286;2022-10-22T05:21:41;9.40;;;1.38;;
23732;SDS011;12047;53.450;-2.286;2022-10-22T05:38:06;12.02;;;1.52;;
23732;SDS011;12047;53.450;-2.286;2022-10-22T05:43:27;13.73;;;1.60;;
23732;SDS011;12047;53.450;-2.286;2022-10-22T05:48:28;8.15;;;1.65;;
23732;SDS011;12047;53.450;-2.286;2022-10-22T05:53:29;14.25;;;1.90;;
23732;SDS011;12047;53.450;-2.286;2022-10-22T05:58:31;12.18;;;2.33;;
23732;SDS011;12047;53.450;-2.286;2022-10-22T06:03:32;14.65;;;2.10;;
23732;SDS011;12047;53.450;-2.286;2022-10-22T06:08:33;12.98;;;2.00;;
23732;SDS011;12047;53.450;-2.286;2022-10-22T06:13:34;12.45;;;2.17;;
23732;SDS011;12047;53.450;-2.286;2022-10-22T06:18:34;14.98;;;1.90;;
23732;SDS011;12047;53.450;-2.286;2022-10-22T06:23:36;13.55;;;2.53;;
23732;SDS011;12047;53.450;-2.286;2022-10-22T06:28:37;13.50;;;2.17;;
23732;SDS011;12047;53.450;-2.286;2022-10-22T06:33:37;13.50;;;2.28;;
23732;SDS011;12047;53.450;-2.286;2022-10-22T06:38:41;14.35;;;2.00;;
23732;SDS011;12047;53.450;-2.286;2022-10-22T06:43:42;10.85;;;1.80;;
23732;SDS011;12047;53.450;-2.286;2022-10-22T06:48:49;15.63;;;2.42;;
23732;SDS011;12047;53.450;-2.286;2022-10-22T06:53:51;20.13;;;2.72;;
23732;SDS011;12047;53.450;-2.286;2022-10-22T06:58:53;16.38;;;3.33;;
23732;SDS011;12047;53.450;-2.286;2022-10-22T07:03:57;15.90;;;2.13;;
23732;SDS011;12047;53.450;-2.286;2022-10-22T07:08:58;14.45;;;2.17;;
23732;SDS011;12047;53.450;-2.286;2022-10-22T07:13:59;14.98;;;1.73;;
23732;SDS011;12047;53.450;-2.286;2022-10-22T07:19:00;21.80;;;2.38;;
23732;SDS011;12047;53.450;-2.286;2022-10-22T07:24:01;26.50;;;5.10;;
23732;SDS011;12047;53.450;-2.286;2022-10-22T07:29:02;17.95;;;2.58;;
23732;SDS011;12047;53.450;-2.286;2022-10-22T07:34:03;18.33;;;2.30;;
23732;SDS011;12047;53.450;-2.286;2022-10-22T07:39:04;16.58;;;2.30;;
23732;SDS011;12047;53.450;-2.286;2022-10-22T07:44:05;13.70;;;2.33;;
23732;SDS011;12047;53.450;-2.286;2022-10-22T07:49:05;15.50;;;2.42;;
23732;SDS011;12047;53.450;-2.286;2022-10-22T07:54:06;21.08;;;3.15;;
23732;SDS011;12047;53.450;-2.286;2022-10-22T07:59:06;20.02;;;3.00;;
23732;SDS011;12047;53.450;-2.286;2022-10-22T08:04:07;18.38;;;2.38;;
23732;SDS011;12047;53.450;-2.286;2022-10-22T08:09:10;23.38;;;2.85;;
23732;SDS011;12047;53.450;-2.286;2022-10-22T08:14:11;14.68;;;2.65;;
23732;SDS011;12047;53.450;-2.286;2022-10-22T08:19:12;19.20;;;2.95;;
23732;SDS011;12047;53.450;-2.286;2022-10-22T08:24:20;19.45;;;2.75;;
23732;SDS011;12047;53.450;-2.286;2022-10-22T08:29:21;14.88;;;3.00;;
23732;SDS011;12047;53.450;-2.286;2022-10-22T08:34:23;14.43;;;2.42;;
23732;SDS011;12047;53.450;-2.286;2022-10-22T08:39:23;20.33;;;2.90;;
23732;SDS011;12047;53.450;-2.286;2022-10-22T08:44:35;16.92;;;3.40;;
23732;SDS011;12047;53.450;-2.286;2022-10-22T08:50:00;19.90;;;2.83;;
23732;SDS011;12047;53.450;-2.286;2022-10-22T08:55:02;19.08;;;2.90;;
23732;SDS011;12047;53.450;-2.286;2022-10-22T09:05:40;19.13;;;2.65;;
23732;SDS011;12047;53.450;-2.286;2022-10-22T09:10:50;16.60;;;2.30;;
23732;SDS011;12047;53.450;-2.286;2022-10-22T09:16:00;19.88;;;2.50;;
23732;SDS011;12047;53.450;-2.286;2022-10-22T09:26:51;18.65;;;2.65;;
23732;SDS011;12047;53.450;-2.286;2022-10-22T09:31:54;16.15;;;2.75;;
23732;SDS011;12047;53.450;-2.286;2022-10-22T09:37:01;15.05;;;2.90;;
23732;SDS011;12047;53.450;-2.286;2022-10-22T09:42:07;22.42;;;2.88;;
23732;SDS011;12047;53.450;-2.286;2022-10-22T10:04:47;17.08;;;2.42;;
23732;SDS011;12047;53.450;-2.286;2022-10-22T10:09:55;18.83;;;2.58;;
23732;SDS011;12047;53.450;-2.286;2022-10-22T10:48:59;11.85;;;2.65;;
23732;SDS011;12047;53.450;-2.286;2022-10-22T11:00:04;16.00;;;2.28;;
23732;SDS011;12047;53.450;-2.286;2022-10-22T11:05:36;16.13;;;2.75;;
23732;SDS011;12047;53.450;-2.286;2022-10-22T11:10:53;15.25;;;2.63;;
23732;SDS011;12047;53.450;-2.286;2022-10-22T11:21:37;17.35;;;2.83;;
23732;SDS011;12047;53.450;-2.286;2022-10-22T11:26:50;16.88;;;2.58;;
23732;SDS011;12047;53.450;-2.286;2022-10-22T11:31:55;15.50;;;2.47;;
23732;SDS011;12047;53.450;-2.286;2022-10-22T11:37:00;16.65;;;2.50;;
23732;SDS011;12047;53.450;-2.286;2022-10-22T12:04:40;15.80;;;2.50;;
23732;SDS011;12047;53.450;-2.286;2022-10-22T12:09:41;9.15;;;2.28;;
23732;SDS011;12047;53.450;-2.286;2022-10-22T12:14:52;16.98;;;2.40;;
23732;SDS011;12047;53.450;-2.286;2022-10-22T12:20:29;8.15;;;1.90;;
23732;SDS011;12047;53.450;-2.286;2022-10-22T12:25:32;18.27;;;2.97;;
23732;SDS011;12047;53.450;-2.286;2022-10-22T12:30:36;11.65;;;2.15;;
23732;SDS011;12047;53.450;-2.286;2022-10-22T12:35:41;12.38;;;2.53;;
23732;SDS011;12047;53.450;-2.286;2022-10-22T12:40:43;10.77;;;2.30;;
23732;SDS011;12047;53.450;-2.286;2022-10-22T12:45:47;11.27;;;2.30;;
23732;SDS011;12047;53.450;-2.286;2022-10-22T12:50:56;10.73;;;1.77;;
23732;SDS011;12047;53.450;-2.286;2022-10-22T12:55:59;8.35;;;2.03;;
23732;SDS011;12047;53.450;-2.286;2022-10-22T13:01:16;11.57;;;1.90;;
23732;SDS011;12047;53.450;-2.286;2022-10-22T13:06:22;13.05;;;1.90;;
23732;SDS011;12047;53.450;-2.286;2022-10-22T13:11:32;15.18;;;2.67;;
23732;SDS011;12047;53.450;-2.286;2022-10-22T13:16:37;10.80;;;1.75;;
23732;SDS011;12047;53.450;-2.286;2022-10-22T13:21:47;13.73;;;2.22;;
23732;SDS011;12047;53.450;-2.286;2022-10-22T13:27:06;11.20;;;1.90;;
23732;SDS011;12047;53.450;-2.286;2022-10-22T13:37:53;8.93;;;1.80;;
23732;SDS011;12047;53.450;-2.286;2022-10-22T13:42:56;14.88;;;2.00;;
23732;SDS011;12047;53.450;-2.286;2022-10-22T13:47:57;14.48;;;3.50;;
23732;SDS011;12047;53.450;-2.286;2022-10-22T13:52:58;12.63;;;2.65;;
23732;SDS011;12047;53.450;-2.286;2022-10-22T13:58:20;12.70;;;2.10;;
23732;SDS011;12047;53.450;-2.286;2022-10-22T14:03:27;10.00;;;2.10;;
23732;SDS011;12047;53.450;-2.286;2022-10-22T14:08:33;16.05;;;2.85;;
23732;SDS011;12047;53.450;-2.286;2022-10-22T14:13:34;8.52;;;1.50;;
23732;SDS011;12047;53.450;-2.286;2022-10-22T14:18:40;9.77;;;1.85;;
23732;SDS011;12047;53.450;-2.286;2022-10-22T14:23:42;9.77;;;1.58;;
23732;SDS011;12047;53.450;-2.286;2022-10-22T14:28:49;8.32;;;1.90;;
23732;SDS011;12047;53.450;-2.286;2022-10-22T14:33:50;8.68;;;1.73;;
23732;SDS011;12047;53.450;-2.286;2022-10-22T14:44:18;6.63;;;1.50;;
23732;SDS011;12047;53.450;-2.286;2022-10-22T14:50:07;11.50;;;1.60;;
23732;SDS011;12047;53.450;-2.286;2022-10-22T14:55:15;12.05;;;1.80;;
23732;SDS011;12047;53.450;-2.286;2022-10-22T15:11:35;10.13;;;1.70;;
23732;SDS011;12047;53.450;-2.286;2022-10-22T15:16:39;8.00;;;2.33;;
23732;SDS011;12047;53.450;-2.286;2022-10-22T15:21:46;4.68;;;1.52;;
23732;SDS011;12047;53.450;-2.286;2022-10-22T15:26:48;13.37;;;1.80;;
23732;SDS011;12047;53.450;-2.286;2022-10-22T15:32:27;11.07;;;2.10;;
23732;SDS011;12047;53.450;-2.286;2022-10-22T15:43:18;9.07;;;2.13;;
23732;SDS011;12047;53.450;-2.286;2022-10-22T15:54:35;8.97;;;1.97;;
23732;SDS011;12047;53.450;-2.286;2022-10-22T15:59:44;8.40;;;2.35;;
23732;SDS011;12047;53.450;-2.286;2022-10-22T16:04:46;9.75;;;2.28;;
23732;SDS011;12047;53.450;-2.286;2022-10-22T16:10:00;10.88;;;1.90;;
23732;SDS011;12047;53.450;-2.286;2022-10-22T16:15:40;5.22;;;1.85;;
23732;SDS011;12047;53.450;-2.286;2022-10-22T16:21:09;4.88;;;1.70;;
23732;SDS011;12047;53.450;-2.286;2022-10-22T17:06:25;14.95;;;2.95;;
23732;SDS011;12047;53.450;-2.286;2022-10-22T17:11:26;23.40;;;3.13;;
23732;SDS011;12047;53.450;-2.286;2022-10-22T17:34:59;13.48;;;4.57;;
23732;SDS011;12047;53.450;-2.286;2022-10-22T17:52:37;18.02;;;5.35;;
23732;SDS011;12047;53.450;-2.286;2022-10-22T18:10:15;18.77;;;8.43;;
23732;SDS011;12047;53.450;-2.286;2022-10-22T18:15:16;20.35;;;7.63;;
23732;SDS011;12047;53.450;-2.286;2022-10-22T18:27:02;23.55;;;6.85;;
23732;SDS011;12047;53.450;-2.286;2022-10-22T18:38:23;16.23;;;6.10;;
23732;SDS011;12047;53.450;-2.286;2022-10-22T18:43:24;17.33;;;4.80;;
23732;SDS011;12047;53.450;-2.286;2022-10-22T18:54:38;20.35;;;6.05;;
23732;SDS011;12047;53.450;-2.286;2022-10-22T18:59:44;16.75;;;5.55;;
23732;SDS011;12047;53.450;-2.286;2022-10-22T19:22:15;20.20;;;6.82;;
23732;SDS011;12047;53.450;-2.286;2022-10-22T19:27:37;22.00;;;8.50;;
23732;SDS011;12047;53.450;-2.286;2022-10-22T19:32:58;24.02;;;8.13;;
23732;SDS011;12047;53.450;-2.286;2022-10-22T20:39:04;20.87;;;5.97;;
23732;SDS011;12047;53.450;-2.286;2022-10-22T20:44:25;17.50;;;5.82;;
23732;SDS011;12047;53.450;-2.286;2022-10-22T20:49:44;27.05;;;6.85;;
23732;SDS011;12047;53.450;-2.286;2022-10-22T20:54:55;21.73;;;5.93;;
23732;SDS011;12047;53.450;-2.286;2022-10-22T21:48:50;21.58;;;4.90;;
23732;SDS011;12047;53.450;-2.286;2022-10-22T22:06:45;18.48;;;5.50;;
23732;SDS011;12047;53.450;-2.286;2022-10-22T22:18:12;21.25;;;5.55;;
23732;SDS011;12047;53.450;-2.286;2022-10-22T22:23:20;23.15;;;5.68;;
23732;SDS011;12047;53.450;-2.286;2022-10-22T22:28:34;17.92;;;5.43;;
23732;SDS011;12047;53.450;-2.286;2022-10-22T22:33:46;22.05;;;5.63;;
23732;SDS011;12047;53.450;-2.286;2022-10-22T22:39:52;10.50;;;3.55;;
23732;SDS011;12047;53.450;-2.286;2022-10-22T22:51:01;15.98;;;4.97;;
23732;SDS011;12047;53.450;-2.286;2022-10-22T22:56:11;15.30;;;4.70;;
23732;SDS011;12047;53.450;-2.286;2022-10-22T23:01:47;16.67;;;4.90;;
23732;SDS011;12047;53.450;-2.286;2022-10-22T23:12:19;18.75;;;5.43;;
23732;SDS011;12047;53.450;-2.286;2022-10-22T23:23:11;12.50;;;5.03;;
23732;SDS011;12047;53.450;-2.286;2022-10-22T23:28:28;12.80;;;4.85;;
23732;SDS011;12047;53.450;-2.286;2022-10-22T23:33:49;19.75;;;5.43;;
23732;SDS011;12047;53.450;-2.286;2022-10-22T23:38:53;15.70;;;4.95;;
23732;SDS011;12047;53.450;-2.286;2022-10-22T23:43:54;17.90;;;4.97;;
23732;SDS011;12047;53.450;-2.286;2022-10-22T23:48:58;13.10;;;4.68;;
